Time;durP1;ratioP1;P1;durP2;ratioP2;P2;SDS_P1;SDS_P2;PMS_P1;PMS_P2;Temp;Humidity;BMP_temperature;BMP_pressure;BME280_temperature;BME280_humidity;BME280_pressure;Samples;Min_cycle;Max_cycle;Signal;HPM_P1;HPM_P2
2021/03/09 00:02:15;;;;;;;27.95;13.85;;;;;;;-0.12;87.38;100622.63;20895702;28;20610;-70
2021/03/09 00:12:16;;;;;;;24.92;12.15;;;;;;;-0.11;87.91;100608.03;20913826;28;20053;-69
2021/03/09 00:22:17;;;;;;;26.98;12.30;;;;;;;-0.21;88.62;100614.97;20886332;28;20440;-71
2021/03/09 00:32:18;;;;;;;26.23;12.15;;;;;;;-0.32;88.94;100610.75;20826730;28;20883;-69
2021/03/09 00:42:21;;;;;;;24.08;12.50;;;;;;;-0.36;88.85;100619.34;20908381;28;20045;-70
2021/03/09 00:52:21;;;;;;;30.05;13.15;;;;;;;-0.41;90.47;100610.81;20898648;28;20041;-70
2021/03/09 01:02:22;;;;;;;28.67;12.73;;;;;;;-0.52;90.38;100603.16;20890254;28;20053;-70
2021/03/09 01:12:23;;;;;;;25.30;13.00;;;;;;;-0.44;90.17;100597.09;20897553;28;20125;-70
2021/03/09 01:22:24;;;;;;;25.50;12.00;;;;;;;-0.42;90.60;100584.25;20877766;28;20046;-70
2021/03/09 01:32:26;;;;;;;33.17;14.10;;;;;;;-0.39;90.24;100580.78;20857276;28;20060;-69
2021/03/09 01:42:27;;;;;;;26.45;12.88;;;;;;;-0.39;91.36;100578.22;20903150;28;20603;-69
2021/03/09 01:52:29;;;;;;;24.55;11.93;;;;;;;-0.40;91.31;100569.66;20899849;28;20044;-69
2021/03/09 02:02:30;;;;;;;26.60;12.70;;;;;;;-0.26;90.61;100567.84;20897879;28;20090;-69
2021/03/09 02:12:59;;;;;;;25.90;12.27;;;;;;;-0.47;91.40;100555.16;20904120;28;20049;-69
2021/03/09 02:23:19;;;;;;;26.63;13.10;;;;;;;-0.53;91.64;100540.63;20873270;28;20102;-70
2021/03/09 02:33:24;;;;;;;29.90;13.50;;;;;;;-0.58;93.34;100519.25;20895586;28;20049;-69
2021/03/09 02:43:28;;;;;;;27.65;13.15;;;;;;;-0.64;93.44;100518.41;20888207;28;20045;-70
2021/03/09 02:53:33;;;;;;;30.48;13.45;;;;;;;-0.64;94.13;100513.28;20904022;28;20049;-71
2021/03/09 03:03:35;;;;;;;28.60;13.25;;;;;;;-0.63;94.17;100512.41;20886482;28;20532;-69
2021/03/09 03:13:38;;;;;;;30.45;13.65;;;;;;;-0.74;95.00;100504.78;20902155;28;20574;-70
2021/03/09 03:23:40;;;;;;;28.15;14.23;;;;;;;-0.68;95.14;100514.16;20902162;28;20447;-69
2021/03/09 03:33:42;;;;;;;28.33;13.52;;;;;;;-0.75;95.79;100517.63;20909195;28;20053;-69
2021/03/09 03:43:43;;;;;;;32.80;15.52;;;;;;;-0.87;96.41;100504.03;20917032;28;20045;-69
2021/03/09 03:53:57;;;;;;;36.08;17.15;;;;;;;-0.77;95.97;100514.25;20916392;28;20107;-69
2021/03/09 04:04:04;;;;;;;40.37;18.10;;;;;;;-0.68;95.61;100512.47;20915618;28;20049;-69
2021/03/09 04:14:07;;;;;;;40.05;18.33;;;;;;;-0.77;96.07;100509.09;20916335;28;20049;-69
2021/03/09 04:24:13;;;;;;;42.40;18.83;;;;;;;-0.70;96.04;100501.31;20915964;28;20044;-68
2021/03/09 04:34:14;;;;;;;38.22;18.75;;;;;;;-0.69;95.74;100497.03;20914558;28;20048;-70
2021/03/09 04:44:15;;;;;;;38.17;18.38;;;;;;;-0.73;96.41;100503.06;20883493;28;20049;-69
2021/03/09 04:54:16;;;;;;;44.15;18.95;;;;;;;-0.62;95.50;100501.28;20830726;28;20049;-70
2021/03/09 05:04:17;;;;;;;42.72;18.85;;;;;;;-0.64;95.99;100500.44;20858339;28;20496;-69
2021/03/09 05:14:18;;;;;;;38.63;17.92;;;;;;;-0.70;96.34;100503.03;20909938;28;20052;-69
2021/03/09 05:24:19;;;;;;;39.05;18.23;;;;;;;-0.68;96.94;100504.75;20908887;28;20041;-69
2021/03/09 05:34:20;;;;;;;43.95;19.38;;;;;;;-0.73;97.28;100490.22;20908026;28;20460;-69
2021/03/09 05:44:21;;;;;;;46.15;21.33;;;;;;;-0.60;96.23;100502.09;20908988;28;20041;-69
2021/03/09 05:54:23;;;;;;;47.53;21.30;;;;;;;-0.57;96.71;100515.81;20891386;28;20471;-69
2021/03/09 06:04:24;;;;;;;39.80;19.58;;;;;;;-0.41;95.20;100524.25;20907818;28;20057;-68
2021/03/09 06:14:25;;;;;;;41.60;20.23;;;;;;;-0.43;95.88;100520.84;20907170;28;20102;-69
2021/03/09 06:24:27;;;;;;;46.80;21.77;;;;;;;-0.35;96.18;100519.03;20904060;28;20048;-70
2021/03/09 06:34:29;;;;;;;44.15;19.92;;;;;;;-0.25;95.16;100512.97;20865808;28;20045;-68
2021/03/09 06:44:31;;;;;;;45.95;19.88;;;;;;;-0.20;94.94;100518.91;20887090;28;20041;-70
2021/03/09 06:54:42;;;;;;;42.80;19.98;;;;;;;-0.04;94.52;100530.78;20904863;28;20055;-68
2021/03/09 07:04:45;;;;;;;39.58;18.90;;;;;;;0.20;93.03;100541.72;20901391;28;20049;-68
2021/03/09 07:14:48;;;;;;;40.47;19.52;;;;;;;0.36;92.58;100541.53;20922199;28;20124;-68
2021/03/09 07:24:49;;;;;;;36.58;18.63;;;;;;;0.53;91.26;100543.94;20867228;28;20065;-68
2021/03/09 07:34:50;;;;;;;37.10;19.00;;;;;;;0.78;90.99;100554.78;20896692;28;20136;-71
2021/03/09 07:44:52;;;;;;;41.10;19.13;;;;;;;0.93;89.50;100559.75;20907900;28;20053;-69
2021/03/09 07:55:02;;;;;;;39.42;19.85;;;;;;;1.06;90.03;100556.19;20901670;28;20052;-68
2021/03/09 08:05:03;;;;;;;39.83;19.83;;;;;;;1.28;87.94;100551.56;20918817;28;20045;-67
2021/03/09 08:15:19;;;;;;;35.33;18.58;;;;;;;1.55;86.50;100558.91;20900630;28;20067;-69
2021/03/09 08:25:37;;;;;;;35.75;18.38;;;;;;;2.11;84.77;100560.56;20900776;28;20441;-67
2021/03/09 08:35:39;;;;;;;34.47;18.17;;;;;;;2.20;83.85;100558.69;20915848;28;20503;-67
2021/03/09 08:45:54;;;;;;;35.60;17.38;;;;;;;2.39;83.07;100558.34;20916012;28;20132;-68
2021/03/09 08:56:03;;;;;;;29.55;17.13;;;;;;;3.03;79.06;100557.09;20914573;28;20056;-67
2021/03/09 09:06:04;;;;;;;37.47;19.75;;;;;;;3.30;78.50;100555.66;20876788;28;20045;-67
2021/03/09 09:16:16;;;;;;;31.30;17.15;;;;;;;3.41;77.73;100564.00;20889798;28;20045;-68
2021/03/09 09:26:18;;;;;;;33.80;17.45;;;;;;;3.57;77.94;100565.34;20869957;28;20064;-68
2021/03/09 09:36:23;;;;;;;30.23;16.88;;;;;;;3.59;76.36;100563.59;20907095;28;20045;-68
2021/03/09 09:46:27;;;;;;;33.72;17.58;;;;;;;3.94;76.35;100554.97;20894185;28;20094;-69
2021/03/09 09:56:28;;;;;;;28.43;15.93;;;;;;;4.25;73.86;100563.69;20908115;28;20049;-68
2021/03/09 10:06:38;;;;;;;32.45;16.63;;;;;;;4.35;72.39;100560.84;20904088;28;20041;-68
2021/03/09 10:16:40;;;;;;;28.08;15.52;;;;;;;4.58;71.11;100554.16;20889472;28;20599;-68
2021/03/09 10:26:41;;;;;;;27.83;15.50;;;;;;;4.63;71.45;100562.66;20879397;28;20512;-67
2021/03/09 10:37:04;;;;;;;26.83;15.82;;;;;;;5.00;69.27;100554.69;20904387;28;20472;-68
2021/03/09 10:47:06;;;;;;;27.05;14.35;;;;;;;5.28;66.26;100556.47;20896398;28;20053;-69
2021/03/09 10:57:10;;;;;;;24.60;13.85;;;;;;;5.00;65.13;100557.28;20899128;28;20041;-69
2021/03/09 11:07:11;;;;;;;26.73;14.80;;;;;;;5.62;67.17;100545.91;20902801;28;20033;-68
2021/03/09 11:17:12;;;;;;;27.63;15.20;;;;;;;5.87;63.64;100542.50;20897674;28;20048;-70
2021/03/09 11:27:14;;;;;;;22.05;13.27;;;;;;;5.92;61.08;100545.81;20900683;28;20037;-69
2021/03/09 11:37:15;;;;;;;24.05;13.05;;;;;;;6.36;60.55;100533.03;20901401;28;20041;-69
2021/03/09 11:47:16;;;;;;;27.50;14.57;;;;;;;6.44;60.21;100534.50;20899802;28;20073;-68
2021/03/09 11:57:17;;;;;;;25.60;13.52;;;;;;;6.90;59.10;100503.38;20911927;28;20047;-68
2021/03/09 12:07:19;;;;;;;18.58;10.80;;;;;;;6.70;57.76;100507.56;20903465;28;20453;-69
2021/03/09 12:17:20;;;;;;;19.55;11.77;;;;;;;6.68;58.60;100496.34;20913125;28;20045;-68
2021/03/09 12:27:22;;;;;;;19.15;10.25;;;;;;;6.99;56.70;100479.59;20897916;28;20080;-68
2021/03/09 12:37:23;;;;;;;18.27;9.40;;;;;;;7.12;55.84;100468.63;20891835;28;20204;-68
2021/03/09 12:47:28;;;;;;;19.52;10.63;;;;;;;7.05;53.96;100458.53;20907891;28;20047;-67
2021/03/09 12:57:29;;;;;;;14.60;8.30;;;;;;;7.27;52.01;100448.97;20912579;28;20049;-68
2021/03/09 13:07:30;;;;;;;14.80;8.25;;;;;;;7.89;48.62;100435.09;20909566;28;20045;-68
2021/03/09 13:17:31;;;;;;;12.90;7.68;;;;;;;8.20;48.00;100427.66;20910806;28;20099;-69
2021/03/09 13:27:32;;;;;;;14.18;8.15;;;;;;;8.62;49.21;100418.88;20901869;28;20059;-68
2021/03/09 13:37:33;;;;;;;14.57;8.70;;;;;;;8.62;46.97;100408.44;20904962;28;20048;-68
2021/03/09 13:47:36;;;;;;;13.52;8.13;;;;;;;9.00;46.86;100408.31;20902285;28;20072;-69
2021/03/09 13:57:38;;;;;;;13.85;8.52;;;;;;;8.69;46.78;100404.59;20902147;28;20084;-69
2021/03/09 14:07:39;;;;;;;13.50;7.40;;;;;;;7.98;48.30;100396.47;20907988;28;20048;-71
2021/03/09 14:17:42;;;;;;;12.88;7.20;;;;;;;8.17;48.89;100391.31;20906772;28;20055;-69
2021/03/09 14:27:44;;;;;;;13.23;7.07;;;;;;;8.46;49.46;100397.84;20906985;28;20049;-69
2021/03/09 14:37:50;;;;;;;11.60;7.03;;;;;;;8.12;50.03;100394.13;20887940;28;20040;-68
2021/03/09 14:47:51;;;;;;;10.95;6.45;;;;;;;8.45;49.11;100380.50;20888179;28;20132;-68
2021/03/09 14:57:53;;;;;;;11.38;5.35;;;;;;;8.74;47.76;100393.03;20903072;28;20250;-69
2021/03/09 15:07:54;;;;;;;11.32;5.05;;;;;;;8.48;48.85;100393.41;20893286;28;20508;-68
2021/03/09 15:17:55;;;;;;;14.05;5.63;;;;;;;8.33;48.91;100396.72;20884070;28;20046;-68
2021/03/09 15:27:56;;;;;;;10.25;5.25;;;;;;;8.33;49.39;100384.50;20880687;28;20080;-71
2021/03/09 15:37:57;;;;;;;9.68;5.30;;;;;;;8.12;49.72;100381.09;20916739;28;20052;-69
2021/03/09 15:47:58;;;;;;;10.55;5.15;;;;;;;8.03;50.14;100383.22;20909253;28;20052;-69
2021/03/09 15:57:59;;;;;;;12.60;6.85;;;;;;;7.93;51.74;100387.16;20920794;28;20058;-69
2021/03/09 16:08:00;;;;;;;12.70;6.63;;;;;;;7.96;51.75;100382.69;20918406;28;20041;-69
2021/03/09 16:18:01;;;;;;;13.32;7.00;;;;;;;7.78;52.58;100385.22;20918336;28;20132;-69
2021/03/09 16:28:03;;;;;;;10.38;5.40;;;;;;;7.60;53.48;100395.53;20917891;28;20080;-69
2021/03/09 16:38:04;;;;;;;11.38;4.40;;;;;;;7.40;54.00;100410.28;20896565;28;20053;-69
2021/03/09 16:48:05;;;;;;;8.85;4.10;;;;;;;7.27;54.21;100420.31;20898173;28;20049;-70
2021/03/09 16:58:07;;;;;;;10.32;5.63;;;;;;;7.01;57.78;100430.94;20904800;28;20124;-70
2021/03/09 17:08:08;;;;;;;12.95;7.32;;;;;;;7.03;58.73;100439.53;20910275;28;20084;-68
2021/03/09 17:18:09;;;;;;;12.32;6.28;;;;;;;6.72;61.48;100458.91;20909998;28;20508;-68
2021/03/09 17:28:10;;;;;;;12.25;6.80;;;;;;;6.78;60.58;100469.09;20911385;28;20048;-68
2021/03/09 17:38:10;;;;;;;12.18;6.50;;;;;;;6.64;61.38;100479.16;20910823;28;20037;-69
2021/03/09 17:48:11;;;;;;;14.70;7.50;;;;;;;6.56;63.36;100488.97;20906468;28;20504;-68
2021/03/09 17:58:13;;;;;;;16.65;8.35;;;;;;;6.49;64.79;100499.66;20884432;28;20148;-68
2021/03/09 18:08:13;;;;;;;18.98;9.40;;;;;;;6.34;66.86;100501.06;20894396;28;20037;-69
2021/03/09 18:18:15;;;;;;;20.08;9.10;;;;;;;5.96;73.73;100521.41;20903182;28;20404;-69
2021/03/09 18:28:16;;;;;;;18.80;10.50;;;;;;;5.72;79.76;100537.78;20903553;28;20484;-69
2021/03/09 18:38:32;;;;;;;18.70;10.68;;;;;;;5.73;79.32;100538.63;20878154;28;20041;-69
2021/03/09 18:48:33;;;;;;;20.75;12.10;;;;;;;5.71;77.36;100543.00;20887522;28;20052;-69
2021/03/09 18:58:34;;;;;;;21.48;11.73;;;;;;;5.74;77.76;100551.53;20907894;28;20049;-69
2021/03/09 19:08:47;;;;;;;22.25;11.93;;;;;;;5.77;75.76;100551.47;20892179;28;20045;-69
2021/03/09 19:18:48;;;;;;;22.10;12.73;;;;;;;5.77;78.19;100555.81;20895699;28;20052;-70
2021/03/09 19:28:49;;;;;;;26.83;14.32;;;;;;;5.65;77.30;100562.22;20899462;28;20045;-70
2021/03/09 19:39:08;;;;;;;28.10;13.20;;;;;;;5.67;76.65;100562.19;20901110;28;20428;-70
2021/03/09 19:49:09;;;;;;;26.55;13.77;;;;;;;5.58;78.99;100561.59;20899431;28;20049;-71
2021/03/09 19:59:11;;;;;;;29.60;14.48;;;;;;;5.59;77.81;100562.41;20896606;28;20049;-70
2021/03/09 20:09:31;;;;;;;27.48;15.15;;;;;;;5.57;77.57;100566.81;20880499;28;20044;-70
2021/03/09 20:19:32;;;;;;;27.65;14.15;;;;;;;5.56;78.79;100557.31;20902675;28;20072;-70
2021/03/09 20:29:33;;;;;;;28.25;15.27;;;;;;;5.58;78.86;100576.31;20916677;28;20048;-70
2021/03/09 20:39:52;;;;;;;29.33;15.02;;;;;;;5.55;78.73;100566.00;20903543;28;20483;-71
2021/03/09 20:49:53;;;;;;;30.42;15.70;;;;;;;5.52;79.12;100556.59;20878854;28;20057;-70
2021/03/09 20:59:54;;;;;;;30.20;16.35;;;;;;;5.50;80.03;100562.69;20897133;28;20054;-69
2021/03/09 21:10:07;;;;;;;30.63;17.27;;;;;;;5.46;79.41;100556.75;20902832;28;20037;-70
2021/03/09 21:20:15;;;;;;;30.58;15.57;;;;;;;5.46;79.27;100556.75;20885616;28;20072;-70
2021/03/09 21:30:17;;;;;;;33.43;14.83;;;;;;;5.44;79.31;100557.69;20891678;28;20696;-71
2021/03/09 21:40:39;;;;;;;31.95;15.00;;;;;;;5.39;80.83;100565.63;20903771;28;20080;-70
2021/03/09 21:50:40;;;;;;;28.20;15.45;;;;;;;5.31;82.69;100553.78;20890553;28;20044;-72
2021/03/09 22:00:40;;;;;;;33.08;16.20;;;;;;;5.26;85.47;100566.03;20908280;28;20049;-72
2021/03/09 22:10:52;;;;;;;32.58;16.75;;;;;;;5.21;86.76;100547.16;20908187;28;20080;-71
2021/03/09 22:20:52;;;;;;;35.30;18.27;;;;;;;4.99;88.28;100545.22;20908101;28;20485;-71
2021/03/09 22:30:53;;;;;;;35.08;17.80;;;;;;;4.99;87.88;100552.97;20907323;28;20688;-71
2021/03/09 22:41:02;;;;;;;33.05;17.10;;;;;;;4.86;89.75;100562.03;20906131;28;20118;-70
2021/03/09 22:51:03;;;;;;;37.40;18.92;;;;;;;4.77;89.63;100551.91;20903070;28;20072;-71
2021/03/09 23:01:05;;;;;;;46.97;22.38;;;;;;;4.38;91.27;100534.84;20904639;28;20124;-71
2021/03/09 23:11:06;;;;;;;42.50;21.23;;;;;;;4.12;92.08;100535.53;20868022;28;20045;-70
2021/03/09 23:21:08;;;;;;;41.95;21.35;;;;;;;3.95;93.87;100535.13;20899529;28;20102;-70
2021/03/09 23:31:09;;;;;;;48.88;21.83;;;;;;;3.80;94.25;100531.19;20899987;28;20048;-71
2021/03/09 23:41:11;;;;;;;50.72;24.25;;;;;;;3.90;94.64;100540.41;20882962;28;20083;-71
2021/03/09 23:51:12;;;;;;;51.95;24.02;;;;;;;4.00;93.74;100546.22;20907815;28;20045;-70
